Terminal Aerodrome Forecast
Issued by NWS Mt. Holly, NJ

Home | Current Version | Previous Version | Text Only | Print | Product List | Glossary On
Versions: 1 2 3 4 5 6 7 8 9 10 11 12 13 14 15 16 17 18 19 20 21 22 23 24 25 26
661
FTUS41 KPHI 220955 AAD
TAFPHL
TAF AMD
KPHL 220955Z 2210/2312 20007KT P6SM SCT006 BKN250
      TEMPO 2210/2213 4SM BR BKN006
     FM221300 22008KT P6SM SCT040 BKN250
     FM221700 23012KT P6SM SCT050 BKN250
     FM230100 22008KT P6SM BKN050 PROB30 2302/2308 4SM -TSRA
      OVC035CB
     FM230800 26007KT P6SM BKN050=

USA.gov is the U.S. government's official web portal to all federal, state and local government web resources and services.